createdAt,value
2023-01-13T10:27:31.778Z,62.13
2023-01-13T10:28:33.616Z,62.23
2023-01-13T10:29:35.418Z,61.93
2023-01-13T10:30:36.176Z,62.13
2023-01-13T10:31:38.031Z,61.83
2023-01-13T10:32:39.886Z,61.72
2023-01-13T10:33:41.697Z,61.63
2023-01-13T10:34:43.513Z,61.40
2023-01-13T10:35:45.308Z,61.40
2023-01-13T10:36:46.057Z,61.30
2023-01-13T10:37:47.875Z,61.30
2023-01-13T10:38:49.671Z,61.00
2023-01-13T10:39:51.462Z,61.00
2023-01-13T10:40:53.267Z,60.97
2023-01-13T10:41:55.066Z,60.86
2023-01-13T10:42:56.911Z,60.86
2023-01-13T10:43:57.660Z,60.47
2023-01-13T10:44:59.457Z,60.57
2023-01-13T10:46:01.278Z,60.36
2023-01-13T10:47:03.074Z,60.27
2023-01-13T10:48:04.876Z,59.96
2023-01-13T10:49:06.682Z,60.16
2023-01-13T10:50:09.661Z,60.36
2023-01-13T10:51:08.495Z,60.24
2023-01-13T10:52:10.339Z,59.94
2023-01-13T10:53:12.195Z,59.94
2023-01-13T10:54:13.988Z,60.14
2023-01-13T10:55:15.806Z,59.94
2023-01-13T10:56:17.607Z,60.03
2023-01-13T10:57:19.414Z,59.94
2023-01-13T10:58:21.243Z,59.94
2023-01-13T10:59:23.052Z,59.83
2023-01-13T11:00:23.799Z,59.74
2023-01-13T11:01:24.686Z,59.64
2023-01-13T11:02:26.716Z,59.74
2023-01-13T11:03:26.743Z,59.64
2023-01-13T11:04:28.607Z,59.83
2023-01-13T11:05:30.388Z,59.44
2023-01-13T11:06:32.190Z,59.33
2023-01-13T11:07:33.999Z,59.50
2023-01-13T11:08:35.819Z,59.11
2023-01-13T11:09:37.619Z,59.20
2023-01-13T11:10:39.421Z,59.31
2023-01-13T11:11:40.178Z,59.11
2023-01-13T11:12:40.933Z,59.31
2023-01-13T11:13:41.298Z,59.20
2023-01-13T11:14:43.006Z,59.20
2023-01-13T11:15:44.883Z,59.11
2023-01-13T11:16:52.994Z,58.91
2023-01-13T11:17:46.926Z,59.20
2023-01-13T11:18:48.736Z,59.00
2023-01-13T11:19:50.536Z,58.81
2023-01-13T11:20:52.343Z,58.91
2023-01-13T11:21:54.136Z,58.70
2023-01-13T11:22:55.947Z,58.81
2023-01-13T11:23:57.758Z,58.91
2023-01-13T11:24:59.595Z,59.00
2023-01-13T11:26:01.387Z,58.91
2023-01-13T11:27:03.229Z,58.81
2023-01-13T11:28:05.023Z,58.81
2023-01-13T11:29:05.824Z,58.70
2023-01-13T11:30:06.584Z,58.81
2023-01-13T11:31:06.813Z,58.81
2023-01-13T11:32:08.461Z,58.61
2023-01-13T11:33:10.257Z,58.70
2023-01-13T11:34:12.102Z,58.70
2023-01-13T11:35:13.914Z,59.00
2023-01-13T11:36:15.713Z,58.91
2023-01-13T11:37:17.515Z,58.91
2023-01-13T11:38:19.304Z,59.31
2023-01-13T11:39:20.052Z,59.20
2023-01-13T11:40:20.811Z,59.00
2023-01-13T11:41:21.117Z,59.20
2023-01-13T11:42:22.826Z,59.31
2023-01-13T11:43:24.628Z,59.20
2023-01-13T11:44:26.471Z,59.20
2023-01-13T11:45:28.283Z,59.31
2023-01-13T11:46:30.139Z,59.41
2023-01-13T11:47:31.969Z,59.31
2023-01-13T11:48:33.772Z,59.31
2023-01-13T11:49:35.580Z,59.31
2023-01-13T11:50:37.388Z,59.41
2023-01-13T11:51:38.144Z,59.50
2023-01-13T11:52:39.948Z,59.41
2023-01-13T11:53:41.755Z,59.31
2023-01-13T11:54:43.583Z,59.41
2023-01-13T11:55:45.390Z,59.31
2023-01-13T11:56:47.202Z,59.20
2023-01-13T11:57:49.000Z,59.00
2023-01-13T11:58:51.515Z,59.11
2023-01-13T11:59:52.392Z,59.41
2023-01-13T12:00:54.227Z,59.31
2023-01-13T12:01:55.030Z,59.31
2023-01-13T12:02:55.812Z,59.41
2023-01-13T12:03:56.081Z,59.31
2023-01-13T12:04:57.823Z,59.31
2023-01-13T12:05:59.638Z,59.41
2023-01-13T12:07:01.443Z,59.41
2023-01-13T12:08:03.243Z,59.50
2023-01-13T12:09:05.055Z,59.41
2023-01-13T12:10:11.617Z,58.33
2023-01-13T12:11:07.576Z,58.09
2023-01-13T12:12:08.341Z,59.14
2023-01-13T12:13:08.699Z,59.78
2023-01-13T12:14:10.511Z,60.55
2023-01-13T12:15:12.364Z,59.92
2023-01-13T12:16:14.237Z,60.12
2023-01-13T12:17:16.058Z,59.59
2023-01-13T12:18:17.908Z,59.66
2023-01-13T12:19:19.716Z,59.36
2023-01-13T12:20:20.480Z,59.56
2023-01-13T12:21:21.252Z,59.23
2023-01-13T12:22:21.629Z,59.33
2023-01-13T12:23:23.390Z,59.13
2023-01-13T12:24:25.194Z,59.23
2023-01-13T12:25:27.015Z,59.44
2023-01-13T12:26:28.804Z,59.13
2023-01-13T12:27:29.562Z,59.03
2023-01-13T12:28:30.352Z,58.91
2023-01-13T12:29:30.580Z,59.13
2023-01-13T12:30:32.394Z,59.23
2023-01-13T12:31:34.224Z,59.13
2023-01-13T12:32:36.043Z,59.33
2023-01-13T12:33:37.836Z,59.23
2023-01-13T12:34:39.638Z,59.33
2023-01-13T12:35:41.463Z,59.33
2023-01-13T12:36:44.965Z,59.13
2023-01-13T12:37:43.617Z,59.13
2023-01-13T12:38:45.418Z,59.13
2023-01-13T12:39:47.226Z,59.11
2023-01-13T12:40:49.033Z,59.11
2023-01-13T12:41:50.833Z,59.11
2023-01-13T12:42:52.631Z,59.11
2023-01-13T12:43:54.432Z,59.20
2023-01-13T12:44:55.180Z,59.11
2023-01-13T12:45:57.016Z,59.31
2023-01-13T12:46:58.809Z,59.11
2023-01-13T12:48:00.621Z,59.20
2023-01-13T12:49:02.471Z,59.31
2023-01-13T12:50:04.272Z,59.31
2023-01-13T12:51:06.088Z,59.31
2023-01-13T12:52:07.894Z,59.20
2023-01-13T12:53:09.728Z,59.20
2023-01-13T12:54:11.524Z,59.31
2023-01-13T12:55:12.271Z,59.20
2023-01-13T12:56:13.044Z,59.31
2023-01-13T12:57:13.382Z,59.11
2023-01-13T12:58:15.186Z,59.81
2023-01-13T12:59:17.059Z,59.31
2023-01-13T13:00:18.878Z,59.20
2023-01-13T13:01:20.937Z,59.31
2023-01-13T13:02:22.831Z,78.20
2023-01-13T13:03:24.654Z,59.68
2023-01-13T13:04:26.465Z,59.61
2023-01-13T13:05:28.273Z,59.70
2023-01-13T13:06:29.035Z,59.81
2023-01-13T13:07:29.997Z,59.94
2023-01-13T13:08:30.065Z,59.94
2023-01-13T13:09:31.786Z,60.03
2023-01-13T13:10:33.585Z,60.03
2023-01-13T13:11:35.395Z,60.03
2023-01-13T13:12:37.202Z,60.03
2023-01-13T13:13:39.011Z,60.33
2023-01-13T13:14:39.855Z,60.14
2023-01-13T13:15:40.657Z,59.94
2023-01-13T13:16:40.956Z,60.03
2023-01-13T13:17:42.622Z,60.24
2023-01-13T13:18:44.344Z,59.94
2023-01-13T13:19:46.158Z,60.24
2023-01-13T13:20:47.966Z,60.14
2023-01-13T13:21:48.721Z,60.03
2023-01-13T13:22:49.470Z,59.91
2023-01-13T13:23:49.824Z,60.14
2023-01-13T13:24:51.591Z,60.44
2023-01-13T13:25:53.398Z,60.44
2023-01-13T13:26:55.215Z,60.33
2023-01-13T13:27:57.033Z,60.33
2023-01-13T13:28:57.776Z,60.44
2023-01-13T13:29:59.570Z,60.44
2023-01-13T13:31:01.411Z,60.71
2023-01-13T13:32:03.821Z,60.84
2023-01-13T13:33:04.579Z,61.24
2023-01-13T13:34:06.389Z,60.64
2023-01-13T13:35:07.147Z,61.44
2023-01-13T13:36:07.900Z,61.64
2023-01-13T13:37:08.448Z,61.21
2023-01-13T13:38:10.016Z,62.04
2023-01-13T13:39:11.826Z,62.74
2023-01-13T13:40:13.571Z,62.44
2023-01-13T13:41:15.378Z,62.04
2023-01-13T13:42:16.140Z,62.44
2023-01-13T13:43:16.911Z,64.65
2023-01-13T13:44:17.263Z,64.54
2023-01-13T13:45:19.041Z,64.25
2023-01-13T13:46:20.885Z,63.14
2023-01-13T13:47:22.901Z,63.04
2023-01-13T13:48:24.701Z,62.34
2023-01-13T13:49:24.826Z,61.94
2023-01-13T13:50:26.570Z,62.14
2023-01-13T13:51:28.386Z,61.94
2023-01-13T13:52:30.319Z,64.34
2023-01-13T13:53:32.180Z,64.45
2023-01-13T13:54:33.986Z,63.45
2023-01-13T13:55:35.785Z,63.04
2023-01-13T13:56:37.587Z,62.94
2023-01-13T13:57:39.818Z,63.04
2023-01-13T13:58:39.793Z,63.14
2023-01-13T13:59:41.595Z,63.64
2023-01-13T14:00:43.387Z,64.01
2023-01-13T14:01:45.323Z,63.71
2023-01-13T14:02:47.209Z,63.61
2023-01-13T14:03:49.018Z,62.74
2023-01-13T14:04:50.856Z,63.34
2023-01-13T14:05:52.685Z,63.24
2023-01-13T14:06:54.501Z,62.64
2023-01-13T14:08:00.994Z,63.42
2023-01-13T14:08:56.459Z,63.42
2023-01-13T14:09:58.252Z,62.71
2023-01-13T14:11:00.084Z,62.92
2023-01-13T14:12:01.878Z,62.84
2023-01-13T14:13:02.630Z,63.11
2023-01-13T14:14:04.433Z,62.51
2023-01-13T14:15:06.222Z,62.31
2023-01-13T14:16:08.058Z,62.11
2023-01-13T14:17:09.883Z,62.74
2023-01-13T14:18:11.732Z,62.94
2023-01-13T14:19:13.519Z,62.64
2023-01-13T14:20:15.318Z,62.64
2023-01-13T14:21:17.122Z,62.84
2023-01-13T14:22:18.931Z,62.64
2023-01-13T14:23:20.730Z,62.54
2023-01-13T14:24:22.560Z,62.64
2023-01-13T14:25:24.359Z,62.54
2023-01-13T14:26:26.154Z,62.44
2023-01-13T14:27:26.837Z,62.44
2023-01-13T14:28:27.615Z,62.44
2023-01-13T14:29:27.916Z,62.44
2023-01-13T14:30:29.619Z,62.34
2023-01-13T14:31:31.418Z,62.44
2023-01-13T14:32:33.231Z,62.34
2023-01-13T14:33:35.093Z,62.24
2023-01-13T14:34:36.892Z,62.24
2023-01-13T14:35:38.680Z,62.04
2023-01-13T14:36:40.483Z,61.74
2023-01-13T14:37:42.301Z,62.04
2023-01-13T14:38:44.108Z,62.04
2023-01-13T14:39:45.915Z,61.94
2023-01-13T14:40:46.664Z,62.04
2023-01-13T14:41:47.408Z,62.04
2023-01-13T14:42:47.758Z,61.94
2023-01-13T14:43:49.499Z,62.04
2023-01-13T14:44:51.328Z,62.04
2023-01-13T14:45:53.147Z,61.94
2023-01-13T14:46:53.574Z,61.94
2023-01-13T14:47:55.372Z,61.84
2023-01-13T14:48:55.404Z,61.74
2023-01-13T14:49:56.533Z,61.84
2023-01-13T14:50:58.328Z,61.74
2023-01-13T14:52:00.144Z,61.64
2023-01-13T14:53:00.893Z,61.74
2023-01-13T14:54:01.666Z,61.44
2023-01-13T14:55:02.042Z,61.44
2023-01-13T14:56:03.796Z,61.64
2023-01-13T14:57:05.604Z,61.64
2023-01-13T14:58:07.410Z,61.64
2023-01-13T14:59:09.240Z,61.64
2023-01-13T15:00:09.983Z,61.64
2023-01-13T15:01:11.799Z,61.54
2023-01-13T15:02:13.649Z,61.44
2023-01-13T15:03:15.463Z,61.34
2023-01-13T15:04:17.334Z,61.34
2023-01-13T15:05:19.242Z,61.24
2023-01-13T15:06:21.062Z,61.24
2023-01-13T15:07:22.876Z,61.24
2023-01-13T15:08:24.669Z,61.14
2023-01-13T15:09:26.481Z,61.04
2023-01-13T15:10:28.286Z,61.04
2023-01-13T15:11:29.050Z,61.34
2023-01-13T15:12:29.815Z,61.24
2023-01-13T15:13:30.156Z,61.24
2023-01-13T15:14:31.935Z,61.04
2023-01-13T15:15:33.736Z,61.14
2023-01-13T15:16:35.614Z,61.14
2023-01-13T15:17:37.483Z,61.24
2023-01-13T15:18:39.291Z,61.24
2023-01-13T15:19:41.126Z,61.44
2023-01-13T15:20:42.919Z,61.44
2023-01-13T15:21:43.668Z,61.44
2023-01-13T15:22:44.424Z,61.57
2023-01-13T15:23:44.729Z,61.67
2023-01-13T15:24:46.489Z,61.67
2023-01-13T15:25:48.303Z,61.77
2023-01-13T15:26:50.106Z,61.57
2023-01-13T15:27:52.109Z,61.57
2023-01-13T15:28:54.904Z,61.67
2023-01-13T15:29:55.665Z,61.47
2023-01-13T15:30:57.479Z,61.47
2023-01-13T15:31:59.274Z,61.34
2023-01-13T15:33:00.038Z,61.24
2023-01-13T15:34:00.827Z,61.04
2023-01-13T15:35:01.075Z,61.24
2023-01-13T15:36:02.787Z,61.24
2023-01-13T15:37:04.608Z,61.14
2023-01-13T15:38:06.404Z,61.24
2023-01-13T15:39:08.206Z,61.47
2023-01-13T15:40:10.019Z,61.54
2023-01-13T15:41:10.833Z,61.36
2023-01-13T15:42:11.583Z,61.57
2023-01-13T15:43:11.936Z,61.34
2023-01-13T15:44:13.687Z,61.47
2023-01-13T15:45:15.504Z,61.67
2023-01-13T15:46:17.401Z,61.67
2023-01-13T15:47:19.219Z,61.57
2023-01-13T15:48:21.023Z,61.36
2023-01-13T15:49:21.769Z,61.27
2023-01-13T15:50:23.607Z,61.36
2023-01-13T15:51:25.400Z,61.27
2023-01-13T15:52:27.198Z,61.27
2023-01-13T15:53:28.995Z,61.27
2023-01-13T15:54:30.811Z,61.36
2023-01-13T15:55:32.663Z,61.27
2023-01-13T15:56:34.479Z,61.27
2023-01-13T15:57:36.265Z,61.36
2023-01-13T15:58:38.052Z,61.47
2023-01-13T15:59:38.792Z,61.77
2023-01-13T16:00:40.731Z,61.97
2023-01-13T16:01:41.629Z,61.87
2023-01-13T16:02:41.980Z,61.97
2023-01-13T16:03:43.644Z,61.67
2023-01-13T16:04:45.448Z,61.47
2023-01-13T16:05:47.274Z,61.36
2023-01-13T16:06:49.089Z,61.27
2023-01-13T16:07:49.839Z,61.27
2023-01-13T16:08:51.641Z,61.36
2023-01-13T16:09:53.441Z,61.36
2023-01-13T16:10:55.248Z,61.17
2023-01-13T16:11:57.046Z,61.17
2023-01-13T16:12:58.849Z,61.17
2023-01-13T16:14:00.659Z,61.17
2023-01-13T16:15:02.473Z,61.07
2023-01-13T16:16:03.255Z,61.17
2023-01-13T16:17:05.078Z,61.17
2023-01-13T16:18:06.869Z,60.94
2023-01-13T16:19:08.664Z,60.97
2023-01-13T16:20:10.467Z,60.97
2023-01-13T16:21:12.322Z,61.07
2023-01-13T16:22:14.464Z,60.97
2023-01-13T16:23:14.273Z,60.97
2023-01-13T16:24:15.909Z,60.97
2023-01-13T16:25:17.712Z,60.86
2023-01-13T16:26:19.554Z,60.86
2023-01-13T16:27:21.364Z,61.07
2023-01-13T16:28:22.118Z,61.27
2023-01-13T16:29:23.920Z,61.07
2023-01-13T16:30:25.713Z,60.97
2023-01-13T16:31:27.577Z,60.97
2023-01-13T16:32:29.399Z,60.97
2023-01-13T16:33:31.028Z,60.86
2023-01-13T16:34:32.831Z,60.77
2023-01-13T16:35:33.563Z,60.77
2023-01-13T16:36:35.420Z,60.86
2023-01-13T16:37:37.239Z,60.86
2023-01-13T16:38:39.037Z,61.27
2023-01-13T16:39:41.105Z,61.07
2023-01-13T16:40:42.899Z,60.64
2023-01-13T16:41:44.699Z,60.64
2023-01-13T16:42:46.503Z,60.53
2023-01-13T16:43:47.238Z,60.84
2023-01-13T16:44:49.040Z,60.74
2023-01-13T16:45:50.941Z,60.14
2023-01-13T16:46:52.776Z,59.94
2023-01-13T16:47:54.573Z,59.96
2023-01-13T16:48:56.370Z,59.96
2023-01-13T16:49:58.172Z,60.47
2023-01-13T16:50:59.969Z,60.47
2023-01-13T16:52:00.769Z,60.57
2023-01-13T16:53:01.558Z,60.57
2023-01-13T16:54:01.874Z,60.77
2023-01-13T16:55:03.647Z,60.86
2023-01-13T16:56:05.449Z,61.04
2023-01-13T16:57:07.256Z,61.34
2023-01-13T16:58:09.057Z,61.44
2023-01-13T16:59:09.805Z,61.14
2023-01-13T17:00:11.600Z,61.24
2023-01-13T17:01:13.480Z,60.94
2023-01-13T17:02:15.336Z,61.54
2023-01-13T17:03:17.223Z,61.14
2023-01-13T17:04:19.112Z,61.41
2023-01-13T17:05:21.006Z,60.81
2023-01-13T17:06:22.823Z,61.21
2023-01-13T17:07:24.667Z,61.21
2023-01-13T17:08:26.462Z,61.01
2023-01-13T17:09:28.259Z,60.91
2023-01-13T17:10:30.051Z,61.01
2023-01-13T17:11:30.806Z,61.11
2023-01-13T17:12:31.576Z,61.21
2023-01-13T17:13:31.913Z,61.61
2023-01-13T17:14:33.682Z,60.98
2023-01-13T17:15:35.471Z,60.68
2023-01-13T17:16:35.756Z,60.48
2023-01-13T17:17:37.296Z,60.78
2023-01-13T17:18:39.097Z,61.28
2023-01-13T17:19:41.092Z,61.58
2023-01-13T17:20:42.890Z,61.38
2023-01-13T17:21:44.689Z,61.41
2023-01-13T17:22:49.713Z,61.48
2023-01-13T17:23:47.131Z,61.11
2023-01-13T17:24:49.001Z,61.41
2023-01-13T17:25:50.806Z,61.41
2023-01-13T17:26:52.608Z,61.61
2023-01-13T17:27:54.416Z,61.31
2023-01-13T17:28:56.216Z,61.31
2023-01-13T17:29:58.003Z,61.21
2023-01-13T17:30:59.803Z,61.61
2023-01-13T17:32:00.585Z,61.71
2023-01-13T17:33:01.355Z,61.91
2023-01-13T17:34:01.704Z,61.51
2023-01-13T17:35:03.501Z,61.11
2023-01-13T17:36:05.301Z,61.61
2023-01-13T17:37:07.098Z,61.61
2023-01-13T17:38:08.965Z,61.81
2023-01-13T17:39:10.753Z,61.98
2023-01-13T17:40:11.497Z,61.88
2023-01-13T17:41:12.247Z,61.88
2023-01-13T17:42:12.577Z,61.98
2023-01-13T17:43:14.345Z,62.18
2023-01-13T17:44:16.154Z,62.28
2023-01-13T17:45:17.971Z,62.38
2023-01-13T17:46:19.935Z,62.25
2023-01-13T17:47:21.786Z,62.35
2023-01-13T17:48:23.603Z,62.38
2023-01-13T17:49:24.341Z,61.98
2023-01-13T17:50:25.080Z,62.38
2023-01-13T17:51:25.484Z,62.78
2023-01-13T17:52:27.238Z,63.01
2023-01-13T17:53:30.728Z,63.11
2023-01-13T17:54:29.433Z,63.31
2023-01-13T17:55:31.231Z,62.11
2023-01-13T17:56:33.029Z,62.81
2023-01-13T17:57:34.825Z,63.01
2023-01-13T17:58:36.650Z,63.01
2023-01-13T17:59:38.447Z,63.01
2023-01-13T18:00:40.239Z,62.94
2023-01-13T18:01:41.188Z,62.84
2023-01-13T18:02:42.081Z,63.14
2023-01-13T18:03:42.100Z,62.81
2023-01-13T18:04:43.848Z,63.14
2023-01-13T18:05:45.933Z,63.04
2023-01-13T18:06:47.730Z,63.04
2023-01-13T18:07:49.524Z,62.94
2023-01-13T18:08:51.377Z,62.64
2023-01-13T18:09:53.168Z,62.64
2023-01-13T18:10:53.916Z,62.64
2023-01-13T18:11:54.676Z,62.74
2023-01-13T18:12:55.032Z,62.74
2023-01-13T18:13:56.766Z,62.64
2023-01-13T18:14:58.579Z,62.54
2023-01-13T18:16:00.382Z,62.44
2023-01-13T18:17:02.211Z,62.44
2023-01-13T18:18:04.015Z,62.34
2023-01-13T18:19:04.855Z,62.44
2023-01-13T18:20:05.605Z,62.47
2023-01-13T18:21:05.935Z,62.54
2023-01-13T18:22:07.665Z,62.47
2023-01-13T18:23:09.459Z,62.37
2023-01-13T18:24:11.417Z,62.37
2023-01-13T18:25:13.218Z,62.37
2023-01-13T18:26:15.017Z,62.37
2023-01-13T18:27:15.737Z,62.17
2023-01-13T18:28:17.541Z,62.37
2023-01-13T18:29:19.383Z,62.27
2023-01-13T18:30:21.187Z,62.37
2023-01-13T18:31:22.997Z,62.37
2023-01-13T18:32:24.799Z,62.17
2023-01-13T18:33:26.596Z,62.17
2023-01-13T18:34:28.415Z,62.27
2023-01-13T18:35:30.216Z,62.17
2023-01-13T18:36:32.013Z,62.07
2023-01-13T18:37:32.759Z,61.97
2023-01-13T18:38:34.546Z,61.97
2023-01-13T18:39:36.397Z,61.97
2023-01-13T18:40:38.200Z,61.87
2023-01-13T18:41:39.986Z,61.87
2023-01-13T18:42:41.783Z,61.97
2023-01-13T18:43:43.585Z,61.87
2023-01-13T18:44:45.401Z,61.87
2023-01-13T18:45:47.253Z,61.87
2023-01-13T18:46:49.077Z,61.77
2023-01-13T18:47:49.818Z,61.77
2023-01-13T18:48:50.586Z,61.67
2023-01-13T18:49:50.770Z,61.67
2023-01-13T18:50:52.619Z,61.77
2023-01-13T18:51:54.423Z,61.77
2023-01-13T18:52:56.218Z,61.67
2023-01-13T18:53:58.011Z,61.67
2023-01-13T18:54:58.794Z,61.57
2023-01-13T18:56:00.585Z,61.47
2023-01-13T18:57:02.383Z,61.57
2023-01-13T18:58:04.184Z,61.57
2023-01-13T18:59:05.982Z,61.57
2023-01-13T19:00:07.784Z,61.57
2023-01-13T19:01:09.692Z,61.57
2023-01-13T19:02:11.680Z,61.57
2023-01-13T19:03:13.484Z,61.57
2023-01-13T19:04:15.292Z,61.47
2023-01-13T19:05:17.100Z,61.47
2023-01-13T19:06:17.835Z,61.47
2023-01-13T19:07:18.592Z,61.36
2023-01-13T19:08:18.902Z,61.47
2023-01-13T19:09:20.596Z,61.50
2023-01-13T19:10:22.449Z,61.50
2023-01-13T19:11:24.240Z,61.50
2023-01-13T19:12:26.066Z,61.50
2023-01-13T19:13:27.914Z,61.50
2023-01-13T19:14:29.704Z,61.50
2023-01-13T19:15:30.537Z,61.50
2023-01-13T19:16:31.414Z,61.50
2023-01-13T19:17:31.611Z,61.50
2023-01-13T19:18:33.368Z,61.50
2023-01-13T19:19:35.164Z,61.60
2023-01-13T19:20:36.986Z,61.50
2023-01-13T19:21:37.731Z,61.60
2023-01-13T19:22:39.529Z,61.50
2023-01-13T19:23:41.323Z,61.50
2023-01-13T19:24:43.120Z,61.40
2023-01-13T19:25:45.055Z,61.50
2023-01-13T19:26:46.859Z,61.50
2023-01-13T19:27:48.753Z,61.50
2023-01-13T19:28:50.628Z,61.50
2023-01-13T19:29:52.982Z,61.40
2023-01-13T19:30:52.752Z,61.40
2023-01-13T19:31:54.430Z,61.50
2023-01-13T19:32:56.257Z,61.50
2023-01-13T19:33:58.052Z,61.50
2023-01-13T19:34:59.935Z,61.50
2023-01-13T19:36:00.708Z,61.50
2023-01-13T19:37:02.505Z,61.40
2023-01-13T19:38:04.311Z,61.30
2023-01-13T19:39:06.113Z,61.30
2023-01-13T19:40:07.916Z,61.30
2023-01-13T19:41:09.879Z,61.30
2023-01-13T19:42:11.742Z,61.30
2023-01-13T19:43:13.530Z,61.30
2023-01-13T19:44:14.839Z,61.19
2023-01-13T19:45:15.669Z,61.30
2023-01-13T19:46:17.620Z,61.19
2023-01-13T19:47:19.459Z,61.19
2023-01-13T19:48:21.245Z,61.19
2023-01-13T19:49:23.038Z,61.19
2023-01-13T19:50:24.848Z,61.19
2023-01-13T19:51:26.660Z,61.19
2023-01-13T19:52:27.394Z,61.19
2023-01-13T19:53:29.200Z,61.19
2023-01-13T19:54:30.996Z,61.33
2023-01-13T19:55:33.116Z,61.33
2023-01-13T19:56:34.982Z,61.33
2023-01-13T19:57:38.273Z,61.19
2023-01-13T19:58:36.915Z,61.19
2023-01-13T19:59:38.565Z,61.19
2023-01-13T20:00:40.361Z,61.22
2023-01-13T20:01:42.264Z,61.19
2023-01-13T20:02:43.076Z,61.10
2023-01-13T20:03:43.877Z,61.10
2023-01-13T20:04:44.174Z,61.19
2023-01-13T20:05:46.025Z,61.10
2023-01-13T20:06:47.849Z,61.10
2023-01-13T20:07:49.656Z,61.00
2023-01-13T20:08:50.401Z,61.02
2023-01-13T20:09:52.193Z,61.10
2023-01-13T20:10:53.994Z,61.10
2023-01-13T20:11:55.915Z,61.10
2023-01-13T20:12:57.723Z,61.13
2023-01-13T20:13:59.512Z,61.22
2023-01-13T20:15:01.323Z,61.43
2023-01-13T20:16:03.165Z,61.30
2023-01-13T20:17:05.051Z,61.43
2023-01-13T20:18:05.782Z,61.43
2023-01-13T20:19:07.575Z,61.43
2023-01-13T20:20:09.384Z,61.43
2023-01-13T20:21:11.184Z,61.52
2023-01-13T20:22:13.003Z,61.63
2023-01-13T20:23:14.801Z,61.52
2023-01-13T20:24:15.557Z,61.63
2023-01-13T20:25:17.444Z,61.63
2023-01-13T20:26:19.294Z,61.52
2023-01-13T20:27:21.138Z,61.52
2023-01-13T20:28:22.926Z,61.43
2023-01-13T20:29:24.726Z,61.43
2023-01-13T20:30:26.526Z,61.43
2023-01-13T20:31:28.334Z,61.33
2023-01-13T20:32:29.091Z,61.22
2023-01-13T20:33:30.907Z,61.22
2023-01-13T20:34:32.708Z,61.33
2023-01-13T20:35:34.522Z,61.33
2023-01-13T20:36:36.325Z,61.33
2023-01-13T20:37:38.150Z,61.22
2023-01-13T20:38:38.902Z,61.33
2023-01-13T20:39:40.694Z,61.33
2023-01-13T20:40:42.492Z,61.22
2023-01-13T20:41:44.288Z,61.13
2023-01-13T20:42:46.146Z,61.22
2023-01-13T20:43:47.953Z,61.22
2023-01-13T20:44:49.747Z,61.13
2023-01-13T20:45:50.486Z,61.22
2023-01-13T20:46:52.393Z,61.13
2023-01-13T20:47:54.226Z,61.13
2023-01-13T20:48:56.023Z,61.13
2023-01-13T20:49:57.815Z,61.13
2023-01-13T20:50:59.608Z,61.13
2023-01-13T20:52:01.402Z,61.02
2023-01-13T20:53:02.167Z,61.02
2023-01-13T20:54:03.950Z,61.13
2023-01-13T20:55:05.749Z,61.22
2023-01-13T20:56:07.546Z,61.13
2023-01-13T20:57:09.344Z,61.02
2023-01-13T20:58:11.284Z,61.02
2023-01-13T20:59:13.076Z,61.13
2023-01-13T21:00:14.867Z,61.13
2023-01-13T21:01:15.706Z,61.13
2023-01-13T21:02:16.558Z,61.13
2023-01-13T21:03:16.819Z,61.13
2023-01-13T21:04:18.578Z,61.13
2023-01-13T21:05:20.365Z,61.13
2023-01-13T21:06:22.177Z,61.13
2023-01-13T21:07:23.987Z,61.13
2023-01-13T21:08:24.753Z,61.13
2023-01-13T21:09:26.590Z,61.02
2023-01-13T21:10:28.403Z,61.13
2023-01-13T21:11:29.757Z,61.13
2023-01-13T21:12:31.558Z,61.13
2023-01-13T21:13:32.332Z,61.13
2023-01-13T21:14:34.134Z,61.02
2023-01-13T21:15:35.939Z,61.13
2023-01-13T21:16:37.754Z,61.02
2023-01-13T21:17:39.571Z,61.02
2023-01-13T21:18:41.378Z,61.13
2023-01-13T21:19:43.184Z,61.25
2023-01-13T21:20:43.931Z,61.25
2023-01-13T21:21:45.715Z,61.33
2023-01-13T21:22:47.519Z,61.52
2023-01-13T21:23:49.354Z,61.43
2023-01-13T21:24:51.147Z,61.22
2023-01-13T21:25:52.939Z,61.13
2023-01-13T21:26:54.719Z,61.13
2023-01-13T21:27:55.563Z,61.02
2023-01-13T21:28:57.396Z,61.02
2023-01-13T21:29:59.196Z,61.02
2023-01-13T21:31:01.024Z,61.02
2023-01-13T21:32:02.817Z,60.93
2023-01-13T21:33:04.612Z,60.93
2023-01-13T21:34:05.365Z,60.93
2023-01-13T21:35:06.111Z,60.93
2023-01-13T21:36:06.446Z,60.82
2023-01-13T21:37:08.226Z,60.93
2023-01-13T21:38:10.033Z,60.93
2023-01-13T21:39:11.851Z,61.02
2023-01-13T21:40:12.656Z,60.93
2023-01-13T21:41:13.405Z,60.93
2023-01-13T21:42:13.696Z,60.93
2023-01-13T21:43:15.441Z,60.93
2023-01-13T21:44:17.488Z,60.93
2023-01-13T21:45:19.277Z,60.82
2023-01-13T21:46:21.085Z,60.82
2023-01-13T21:47:22.890Z,60.82
2023-01-13T21:48:24.687Z,60.82
2023-01-13T21:49:26.504Z,60.82
2023-01-13T21:50:27.242Z,60.72
2023-01-13T21:51:29.046Z,60.82
2023-01-13T21:52:30.858Z,60.72
2023-01-13T21:53:32.667Z,60.72
2023-01-13T21:54:34.492Z,60.72
2023-01-13T21:55:36.288Z,60.82
2023-01-13T21:56:38.098Z,60.82
2023-01-13T21:57:39.887Z,60.82
2023-01-13T21:58:40.635Z,60.82
2023-01-13T21:59:42.448Z,60.72
2023-01-13T22:00:44.292Z,60.72
2023-01-13T22:02:21.829Z,60.82
2023-01-13T22:02:47.740Z,60.82
2023-01-13T22:03:49.613Z,60.72
2023-01-13T22:04:51.418Z,60.82
2023-01-13T22:05:53.220Z,60.96
2023-01-13T22:06:55.015Z,60.85
2023-01-13T22:07:55.407Z,60.85
2023-01-13T22:08:57.164Z,60.85
2023-01-13T22:09:58.979Z,60.82
2023-01-13T22:11:00.782Z,60.72
2023-01-13T22:12:02.581Z,60.72
2023-01-13T22:13:04.375Z,60.72
2023-01-13T22:14:05.109Z,60.72
2023-01-13T22:15:06.954Z,60.72
2023-01-13T22:16:08.780Z,60.72
2023-01-13T22:17:10.602Z,60.72
2023-01-13T22:18:12.396Z,60.62
2023-01-13T22:19:14.196Z,60.62
2023-01-13T22:20:16.007Z,60.75
2023-01-13T22:21:17.820Z,60.75
2023-01-13T22:22:19.625Z,60.72
2023-01-13T22:23:20.361Z,60.65
2023-01-13T22:24:22.155Z,60.62
2023-01-13T22:25:23.969Z,60.65
2023-01-13T22:26:25.761Z,60.75
2023-01-13T22:27:27.558Z,60.72
2023-01-13T22:28:29.357Z,60.65
2023-01-13T22:29:30.102Z,60.75
2023-01-13T22:30:31.940Z,60.65
2023-01-13T22:31:33.802Z,60.65
2023-01-13T22:32:35.646Z,60.65
2023-01-13T22:33:37.210Z,60.75
2023-01-13T22:34:39.062Z,60.65
2023-01-13T22:35:40.893Z,60.65
2023-01-13T22:36:41.635Z,60.62
2023-01-13T22:37:43.433Z,60.65
2023-01-13T22:38:45.227Z,60.65
2023-01-13T22:39:47.043Z,60.75
2023-01-13T22:41:32.413Z,60.65
2023-01-13T22:42:32.362Z,60.65
2023-01-13T22:43:34.140Z,60.65
2023-01-13T22:44:35.941Z,60.55
2023-01-13T22:45:37.809Z,60.65
2023-01-13T22:46:39.879Z,60.55
2023-01-13T22:47:41.682Z,60.62
2023-01-13T22:48:42.447Z,60.65
2023-01-13T22:49:44.240Z,60.65
2023-01-13T22:50:46.110Z,60.65
2023-01-13T22:51:47.918Z,60.65
2023-01-13T22:52:49.711Z,60.65
2023-01-13T22:53:51.517Z,60.65
2023-01-13T22:54:53.307Z,60.55
2023-01-13T22:55:54.063Z,60.55
2023-01-13T22:56:55.538Z,60.55
2023-01-13T22:57:57.331Z,60.55
2023-01-13T22:58:59.121Z,60.55
2023-01-13T22:59:59.901Z,60.55
2023-01-13T23:01:01.753Z,60.55
2023-01-13T23:02:03.610Z,60.45
2023-01-13T23:03:05.398Z,60.45
2023-01-13T23:04:07.367Z,60.55
2023-01-13T23:05:09.275Z,60.45
2023-01-13T23:06:11.076Z,60.55
2023-01-13T23:07:12.898Z,60.55
2023-01-13T23:08:13.634Z,60.55
2023-01-13T23:09:15.421Z,60.45
2023-01-13T23:10:17.221Z,60.45
2023-01-13T23:11:19.006Z,60.45
2023-01-13T23:12:20.804Z,60.45
2023-01-13T23:13:22.599Z,60.45
2023-01-13T23:14:24.389Z,60.35
2023-01-13T23:15:25.127Z,60.35
2023-01-13T23:16:27.054Z,60.45
2023-01-13T23:17:28.905Z,60.35
2023-01-13T23:18:30.693Z,60.35
2023-01-13T23:19:32.498Z,60.45
2023-01-13T23:20:34.297Z,60.55
2023-01-13T23:21:36.198Z,60.55
2023-01-13T23:22:38.011Z,60.55
2023-01-13T23:23:38.264Z,60.55
2023-01-13T23:24:40.037Z,60.55
2023-01-13T23:25:41.838Z,60.55
2023-01-13T23:26:43.631Z,60.45
2023-01-13T23:27:45.446Z,60.55
2023-01-13T23:28:46.184Z,60.55
2023-01-13T23:29:46.928Z,60.45
2023-01-13T23:30:47.354Z,60.45
2023-01-13T23:31:49.091Z,60.45
2023-01-13T23:32:50.902Z,60.45
2023-01-13T23:33:52.736Z,60.45
2023-01-13T23:34:53.474Z,60.45
2023-01-13T23:35:55.265Z,60.35
2023-01-13T23:36:57.053Z,60.35
2023-01-13T23:37:58.861Z,60.45
2023-01-13T23:39:00.670Z,60.45
2023-01-13T23:40:02.481Z,60.45